sensor_id;sensor_type;location;lat;lon;timestamp;P1;durP1;ratioP1;P2;durP2;ratioP2
19946;SDS011;10135;50.702;7.276;2023-04-06T05:01:24;7.30;;;5.27;;
19946;SDS011;10135;50.702;7.276;2023-04-06T05:03:25;8.20;;;5.47;;
19946;SDS011;10135;50.702;7.276;2023-04-06T05:05:26;10.13;;;5.30;;
19946;SDS011;10135;50.702;7.276;2023-04-06T05:07:27;10.70;;;5.30;;
19946;SDS011;10135;50.702;7.276;2023-04-06T05:09:29;7.60;;;5.23;;
19946;SDS011;10135;50.702;7.276;2023-04-06T05:11:30;10.63;;;5.20;;
19946;SDS011;10135;50.702;7.276;2023-04-06T05:13:31;8.10;;;5.23;;
19946;SDS011;10135;50.702;7.276;2023-04-06T05:15:32;9.20;;;5.40;;
19946;SDS011;10135;50.702;7.276;2023-04-06T05:17:38;9.70;;;5.40;;
19946;SDS011;10135;50.702;7.276;2023-04-06T05:19:38;6.47;;;5.27;;
19946;SDS011;10135;50.702;7.276;2023-04-06T05:21:39;7.43;;;5.07;;
19946;SDS011;10135;50.702;7.276;2023-04-06T05:23:39;8.00;;;4.80;;
19946;SDS011;10135;50.702;7.276;2023-04-06T05:25:40;9.53;;;5.30;;
19946;SDS011;10135;50.702;7.276;2023-04-06T05:27:41;6.80;;;5.23;;
19946;SDS011;10135;50.702;7.276;2023-04-06T05:29:41;7.17;;;5.40;;
19946;SDS011;10135;50.702;7.276;2023-04-06T05:31:42;6.50;;;5.03;;
19946;SDS011;10135;50.702;7.276;2023-04-06T05:33:43;8.90;;;5.53;;
19946;SDS011;10135;50.702;7.276;2023-04-06T05:35:43;12.77;;;6.23;;
19946;SDS011;10135;50.702;7.276;2023-04-06T05:37:44;13.13;;;6.40;;
19946;SDS011;10135;50.702;7.276;2023-04-06T05:39:45;9.07;;;5.70;;
19946;SDS011;10135;50.702;7.276;2023-04-06T05:41:46;9.53;;;5.47;;
19946;SDS011;10135;50.702;7.276;2023-04-06T05:43:46;10.40;;;5.73;;
19946;SDS011;10135;50.702;7.276;2023-04-06T05:45:47;8.10;;;5.50;;
19946;SDS011;10135;50.702;7.276;2023-04-06T05:47:48;11.33;;;5.57;;
19946;SDS011;10135;50.702;7.276;2023-04-06T05:49:48;11.70;;;5.90;;
19946;SDS011;10135;50.702;7.276;2023-04-06T05:51:49;7.27;;;5.30;;
19946;SDS011;10135;50.702;7.276;2023-04-06T05:53:50;13.77;;;5.43;;
19946;SDS011;10135;50.702;7.276;2023-04-06T05:55:50;11.00;;;5.73;;
19946;SDS011;10135;50.702;7.276;2023-04-06T05:57:51;9.63;;;5.50;;
19946;SDS011;10135;50.702;7.276;2023-04-06T05:59:51;9.57;;;5.33;;
19946;SDS011;10135;50.702;7.276;2023-04-06T06:01:52;12.30;;;5.50;;
19946;SDS011;10135;50.702;7.276;2023-04-06T06:03:53;17.00;;;6.00;;
19946;SDS011;10135;50.702;7.276;2023-04-06T06:05:53;7.50;;;5.40;;
19946;SDS011;10135;50.702;7.276;2023-04-06T06:07:59;11.40;;;5.77;;
19946;SDS011;10135;50.702;7.276;2023-04-06T06:10:02;13.33;;;5.97;;
19946;SDS011;10135;50.702;7.276;2023-04-06T06:12:03;10.90;;;5.37;;
19946;SDS011;10135;50.702;7.276;2023-04-06T06:14:04;13.30;;;5.23;;
19946;SDS011;10135;50.702;7.276;2023-04-06T06:16:04;13.47;;;5.77;;
19946;SDS011;10135;50.702;7.276;2023-04-06T06:18:05;16.83;;;5.27;;
19946;SDS011;10135;50.702;7.276;2023-04-06T06:20:06;10.97;;;5.43;;
19946;SDS011;10135;50.702;7.276;2023-04-06T06:22:07;12.83;;;5.30;;
19946;SDS011;10135;50.702;7.276;2023-04-06T06:24:09;10.27;;;4.70;;
19946;SDS011;10135;50.702;7.276;2023-04-06T06:26:10;11.87;;;5.10;;
19946;SDS011;10135;50.702;7.276;2023-04-06T06:28:10;8.80;;;5.00;;
19946;SDS011;10135;50.702;7.276;2023-04-06T06:30:11;6.90;;;4.67;;
19946;SDS011;10135;50.702;7.276;2023-04-06T06:32:12;6.77;;;5.03;;
19946;SDS011;10135;50.702;7.276;2023-04-06T06:34:14;9.27;;;4.90;;
19946;SDS011;10135;50.702;7.276;2023-04-06T06:36:15;5.83;;;4.33;;
19946;SDS011;10135;50.702;7.276;2023-04-06T06:38:17;6.03;;;4.63;;
19946;SDS011;10135;50.702;7.276;2023-04-06T06:40:18;8.60;;;4.80;;
19946;SDS011;10135;50.702;7.276;2023-04-06T06:42:19;6.83;;;4.47;;
19946;SDS011;10135;50.702;7.276;2023-04-06T06:44:20;9.27;;;4.80;;
19946;SDS011;10135;50.702;7.276;2023-04-06T06:46:21;7.17;;;4.93;;
19946;SDS011;10135;50.702;7.276;2023-04-06T06:48:22;5.70;;;4.40;;
19946;SDS011;10135;50.702;7.276;2023-04-06T06:50:22;11.37;;;4.97;;
19946;SDS011;10135;50.702;7.276;2023-04-06T06:52:23;7.67;;;5.13;;
19946;SDS011;10135;50.702;7.276;2023-04-06T06:54:24;8.93;;;5.23;;
19946;SDS011;10135;50.702;7.276;2023-04-06T06:56:24;7.90;;;4.70;;
19946;SDS011;10135;50.702;7.276;2023-04-06T06:58:26;11.87;;;4.83;;
19946;SDS011;10135;50.702;7.276;2023-04-06T07:00:27;5.27;;;4.53;;
19946;SDS011;10135;50.702;7.276;2023-04-06T07:02:27;7.00;;;4.40;;
19946;SDS011;10135;50.702;7.276;2023-04-06T07:04:28;7.03;;;5.17;;
19946;SDS011;10135;50.702;7.276;2023-04-06T07:06:29;7.87;;;5.10;;
19946;SDS011;10135;50.702;7.276;2023-04-06T07:08:29;6.03;;;4.73;;
19946;SDS011;10135;50.702;7.276;2023-04-06T07:10:30;8.40;;;5.20;;
19946;SDS011;10135;50.702;7.276;2023-04-06T07:12:31;5.73;;;5.13;;
19946;SDS011;10135;50.702;7.276;2023-04-06T07:14:31;8.33;;;5.23;;
19946;SDS011;10135;50.702;7.276;2023-04-06T07:16:32;6.77;;;4.27;;
19946;SDS011;10135;50.702;7.276;2023-04-06T07:18:33;7.37;;;5.13;;
19946;SDS011;10135;50.702;7.276;2023-04-06T07:20:33;6.80;;;5.17;;
19946;SDS011;10135;50.702;7.276;2023-04-06T07:22:34;6.27;;;4.77;;
19946;SDS011;10135;50.702;7.276;2023-04-06T07:24:35;8.00;;;5.37;;
19946;SDS011;10135;50.702;7.276;2023-04-06T07:26:36;6.93;;;5.30;;
19946;SDS011;10135;50.702;7.276;2023-04-06T07:28:37;10.63;;;4.73;;
19946;SDS011;10135;50.702;7.276;2023-04-06T07:30:37;6.23;;;4.70;;
19946;SDS011;10135;50.702;7.276;2023-04-06T07:32:39;7.17;;;4.90;;
19946;SDS011;10135;50.702;7.276;2023-04-06T07:34:39;5.50;;;4.73;;
19946;SDS011;10135;50.702;7.276;2023-04-06T07:36:40;7.37;;;5.13;;
19946;SDS011;10135;50.702;7.276;2023-04-06T07:38:41;7.77;;;4.83;;
19946;SDS011;10135;50.702;7.276;2023-04-06T07:40:41;6.27;;;5.07;;
19946;SDS011;10135;50.702;7.276;2023-04-06T07:42:42;6.80;;;4.97;;
19946;SDS011;10135;50.702;7.276;2023-04-06T07:44:43;7.00;;;5.23;;
19946;SDS011;10135;50.702;7.276;2023-04-06T07:46:43;7.43;;;4.97;;
19946;SDS011;10135;50.702;7.276;2023-04-06T07:48:44;6.47;;;5.10;;
19946;SDS011;10135;50.702;7.276;2023-04-06T07:50:44;5.33;;;4.73;;
19946;SDS011;10135;50.702;7.276;2023-04-06T07:52:45;5.47;;;4.40;;
19946;SDS011;10135;50.702;7.276;2023-04-06T07:54:46;5.90;;;4.93;;
19946;SDS011;10135;50.702;7.276;2023-04-06T07:56:48;6.67;;;4.80;;
19946;SDS011;10135;50.702;7.276;2023-04-06T07:58:48;8.97;;;5.10;;
19946;SDS011;10135;50.702;7.276;2023-04-06T08:00:49;9.37;;;5.40;;
19946;SDS011;10135;50.702;7.276;2023-04-06T08:02:50;7.67;;;4.90;;
19946;SDS011;10135;50.702;7.276;2023-04-06T08:04:51;16.43;;;5.97;;
19946;SDS011;10135;50.702;7.276;2023-04-06T08:06:51;7.23;;;5.33;;
19946;SDS011;10135;50.702;7.276;2023-04-06T08:08:52;10.83;;;5.03;;
19946;SDS011;10135;50.702;7.276;2023-04-06T08:10:52;9.27;;;5.07;;
19946;SDS011;10135;50.702;7.276;2023-04-06T08:12:53;6.97;;;5.40;;
19946;SDS011;10135;50.702;7.276;2023-04-06T08:14:54;6.73;;;4.97;;
19946;SDS011;10135;50.702;7.276;2023-04-06T08:16:55;6.93;;;5.10;;
19946;SDS011;10135;50.702;7.276;2023-04-06T08:18:55;6.27;;;4.73;;
19946;SDS011;10135;50.702;7.276;2023-04-06T08:20:56;10.30;;;5.17;;
19946;SDS011;10135;50.702;7.276;2023-04-06T08:22:57;9.27;;;5.40;;
19946;SDS011;10135;50.702;7.276;2023-04-06T08:24:57;8.73;;;5.37;;
19946;SDS011;10135;50.702;7.276;2023-04-06T08:26:58;8.03;;;5.80;;
19946;SDS011;10135;50.702;7.276;2023-04-06T08:28:58;8.93;;;5.93;;
19946;SDS011;10135;50.702;7.276;2023-04-06T08:31:02;8.40;;;6.00;;
19946;SDS011;10135;50.702;7.276;2023-04-06T08:33:06;10.47;;;6.43;;
19946;SDS011;10135;50.702;7.276;2023-04-06T08:35:07;10.37;;;6.07;;
19946;SDS011;10135;50.702;7.276;2023-04-06T08:37:09;11.37;;;6.77;;
19946;SDS011;10135;50.702;7.276;2023-04-06T08:39:09;10.50;;;6.30;;
19946;SDS011;10135;50.702;7.276;2023-04-06T08:41:10;8.77;;;5.87;;
19946;SDS011;10135;50.702;7.276;2023-04-06T08:43:13;10.53;;;6.60;;
19946;SDS011;10135;50.702;7.276;2023-04-06T08:45:14;10.10;;;6.30;;
19946;SDS011;10135;50.702;7.276;2023-04-06T08:47:16;11.60;;;6.90;;
19946;SDS011;10135;50.702;7.276;2023-04-06T08:49:17;10.30;;;6.20;;
19946;SDS011;10135;50.702;7.276;2023-04-06T08:51:19;10.03;;;5.77;;
19946;SDS011;10135;50.702;7.276;2023-04-06T08:53:20;9.83;;;6.23;;
19946;SDS011;10135;50.702;7.276;2023-04-06T08:55:20;8.87;;;5.87;;
19946;SDS011;10135;50.702;7.276;2023-04-06T08:57:22;9.93;;;6.23;;
19946;SDS011;10135;50.702;7.276;2023-04-06T08:59:24;12.00;;;6.30;;
19946;SDS011;10135;50.702;7.276;2023-04-06T09:01:26;10.87;;;6.43;;
19946;SDS011;10135;50.702;7.276;2023-04-06T09:03:28;12.97;;;6.37;;
19946;SDS011;10135;50.702;7.276;2023-04-06T09:05:31;9.80;;;6.23;;
19946;SDS011;10135;50.702;7.276;2023-04-06T09:07:32;9.77;;;6.00;;
19946;SDS011;10135;50.702;7.276;2023-04-06T09:09:33;10.60;;;6.30;;
19946;SDS011;10135;50.702;7.276;2023-04-06T09:11:46;12.27;;;6.00;;
19946;SDS011;10135;50.702;7.276;2023-04-06T09:13:50;9.53;;;5.67;;
19946;SDS011;10135;50.702;7.276;2023-04-06T09:15:59;9.60;;;6.20;;
19946;SDS011;10135;50.702;7.276;2023-04-06T09:18:06;12.23;;;6.30;;
19946;SDS011;10135;50.702;7.276;2023-04-06T09:20:07;11.50;;;6.50;;
19946;SDS011;10135;50.702;7.276;2023-04-06T09:22:09;8.83;;;6.03;;
19946;SDS011;10135;50.702;7.276;2023-04-06T09:24:09;10.53;;;6.30;;
19946;SDS011;10135;50.702;7.276;2023-04-06T09:26:11;11.00;;;6.23;;
19946;SDS011;10135;50.702;7.276;2023-04-06T09:28:17;9.10;;;6.20;;
19946;SDS011;10135;50.702;7.276;2023-04-06T09:30:17;9.80;;;6.23;;
19946;SDS011;10135;50.702;7.276;2023-04-06T09:32:18;9.77;;;5.93;;
19946;SDS011;10135;50.702;7.276;2023-04-06T09:34:22;10.27;;;5.80;;
19946;SDS011;10135;50.702;7.276;2023-04-06T09:36:33;10.07;;;5.93;;
19946;SDS011;10135;50.702;7.276;2023-04-06T09:38:51;9.70;;;5.63;;
19946;SDS011;10135;50.702;7.276;2023-04-06T09:40:56;13.30;;;6.40;;
19946;SDS011;10135;50.702;7.276;2023-04-06T09:42:56;9.63;;;6.17;;
19946;SDS011;10135;50.702;7.276;2023-04-06T09:44:59;10.03;;;6.67;;
19946;SDS011;10135;50.702;7.276;2023-04-06T09:47:00;11.43;;;6.50;;
19946;SDS011;10135;50.702;7.276;2023-04-06T09:49:06;13.27;;;6.57;;
19946;SDS011;10135;50.702;7.276;2023-04-06T09:51:09;11.93;;;6.67;;
19946;SDS011;10135;50.702;7.276;2023-04-06T09:53:13;9.60;;;5.57;;
19946;SDS011;10135;50.702;7.276;2023-04-06T09:55:21;10.17;;;5.70;;
19946;SDS011;10135;50.702;7.276;2023-04-06T09:57:32;11.03;;;6.17;;
19946;SDS011;10135;50.702;7.276;2023-04-06T09:59:50;11.57;;;6.10;;
19946;SDS011;10135;50.702;7.276;2023-04-06T10:04:43;11.00;;;6.37;;
19946;SDS011;10135;50.702;7.276;2023-04-06T10:07:22;10.50;;;6.10;;
19946;SDS011;10135;50.702;7.276;2023-04-06T10:09:24;9.80;;;6.07;;
19946;SDS011;10135;50.702;7.276;2023-04-06T10:11:35;9.47;;;6.00;;
19946;SDS011;10135;50.702;7.276;2023-04-06T10:13:36;10.87;;;6.90;;
19946;SDS011;10135;50.702;7.276;2023-04-06T10:15:40;11.20;;;6.40;;
19946;SDS011;10135;50.702;7.276;2023-04-06T10:17:42;11.23;;;6.13;;
19946;SDS011;10135;50.702;7.276;2023-04-06T10:19:46;14.20;;;6.87;;
19946;SDS011;10135;50.702;7.276;2023-04-06T10:21:54;11.93;;;6.60;;
19946;SDS011;10135;50.702;7.276;2023-04-06T10:24:00;11.63;;;6.33;;
19946;SDS011;10135;50.702;7.276;2023-04-06T10:26:02;9.90;;;6.47;;
19946;SDS011;10135;50.702;7.276;2023-04-06T10:28:07;12.03;;;6.23;;
19946;SDS011;10135;50.702;7.276;2023-04-06T10:30:11;10.50;;;6.57;;
19946;SDS011;10135;50.702;7.276;2023-04-06T10:32:17;9.70;;;6.53;;
19946;SDS011;10135;50.702;7.276;2023-04-06T10:34:17;10.87;;;6.50;;
19946;SDS011;10135;50.702;7.276;2023-04-06T10:36:22;11.20;;;6.60;;
19946;SDS011;10135;50.702;7.276;2023-04-06T10:38:32;10.37;;;5.97;;
19946;SDS011;10135;50.702;7.276;2023-04-06T10:40:35;12.20;;;6.67;;
19946;SDS011;10135;50.702;7.276;2023-04-06T10:42:38;10.13;;;6.23;;
19946;SDS011;10135;50.702;7.276;2023-04-06T10:44:42;12.93;;;6.40;;
19946;SDS011;10135;50.702;7.276;2023-04-06T10:46:51;11.70;;;6.93;;
19946;SDS011;10135;50.702;7.276;2023-04-06T10:49:09;10.13;;;6.37;;
19946;SDS011;10135;50.702;7.276;2023-04-06T10:51:13;10.17;;;6.33;;
19946;SDS011;10135;50.702;7.276;2023-04-06T10:53:22;12.13;;;6.67;;
19946;SDS011;10135;50.702;7.276;2023-04-06T10:55:27;11.23;;;6.63;;
19946;SDS011;10135;50.702;7.276;2023-04-06T10:57:30;10.83;;;6.53;;
19946;SDS011;10135;50.702;7.276;2023-04-06T10:59:32;11.93;;;6.60;;
19946;SDS011;10135;50.702;7.276;2023-04-06T11:01:33;13.57;;;6.73;;
19946;SDS011;10135;50.702;7.276;2023-04-06T11:03:42;13.23;;;6.63;;
19946;SDS011;10135;50.702;7.276;2023-04-06T11:05:48;10.80;;;6.60;;
19946;SDS011;10135;50.702;7.276;2023-04-06T11:07:50;13.57;;;7.63;;
19946;SDS011;10135;50.702;7.276;2023-04-06T11:09:51;9.90;;;6.33;;
19946;SDS011;10135;50.702;7.276;2023-04-06T11:11:52;11.43;;;6.97;;
19946;SDS011;10135;50.702;7.276;2023-04-06T11:13:54;11.40;;;6.67;;
19946;SDS011;10135;50.702;7.276;2023-04-06T11:15:57;9.57;;;6.30;;
19946;SDS011;10135;50.702;7.276;2023-04-06T11:17:58;10.53;;;6.50;;
19946;SDS011;10135;50.702;7.276;2023-04-06T11:20:09;11.03;;;6.27;;
19946;SDS011;10135;50.702;7.276;2023-04-06T11:22:11;10.93;;;6.70;;
19946;SDS011;10135;50.702;7.276;2023-04-06T11:24:18;11.80;;;6.40;;
19946;SDS011;10135;50.702;7.276;2023-04-06T11:26:23;12.13;;;6.77;;
19946;SDS011;10135;50.702;7.276;2023-04-06T11:28:24;22.83;;;6.80;;
19946;SDS011;10135;50.702;7.276;2023-04-06T11:30:25;12.27;;;6.67;;
19946;SDS011;10135;50.702;7.276;2023-04-06T11:32:26;11.73;;;6.47;;
19946;SDS011;10135;50.702;7.276;2023-04-06T11:34:28;10.77;;;6.10;;
19946;SDS011;10135;50.702;7.276;2023-04-06T11:36:30;12.10;;;6.50;;
19946;SDS011;10135;50.702;7.276;2023-04-06T11:38:31;10.70;;;5.87;;
19946;SDS011;10135;50.702;7.276;2023-04-06T11:40:31;12.37;;;6.67;;
19946;SDS011;10135;50.702;7.276;2023-04-06T11:42:34;11.70;;;6.57;;
19946;SDS011;10135;50.702;7.276;2023-04-06T11:46:50;12.40;;;6.80;;
19946;SDS011;10135;50.702;7.276;2023-04-06T11:48:53;8.47;;;5.60;;
19946;SDS011;10135;50.702;7.276;2023-04-06T11:51:02;10.90;;;6.43;;
19946;SDS011;10135;50.702;7.276;2023-04-06T11:53:04;9.20;;;5.80;;
19946;SDS011;10135;50.702;7.276;2023-04-06T11:55:15;10.00;;;5.87;;
19946;SDS011;10135;50.702;7.276;2023-04-06T11:57:18;9.53;;;6.13;;
19946;SDS011;10135;50.702;7.276;2023-04-06T11:59:24;10.77;;;6.53;;
19946;SDS011;10135;50.702;7.276;2023-04-06T12:01:25;9.83;;;6.20;;
19946;SDS011;10135;50.702;7.276;2023-04-06T12:03:26;9.63;;;6.37;;
19946;SDS011;10135;50.702;7.276;2023-04-06T12:05:27;10.53;;;6.60;;
19946;SDS011;10135;50.702;7.276;2023-04-06T12:07:28;12.30;;;6.70;;
19946;SDS011;10135;50.702;7.276;2023-04-06T12:09:30;10.60;;;6.53;;
19946;SDS011;10135;50.702;7.276;2023-04-06T12:11:31;9.63;;;5.90;;
19946;SDS011;10135;50.702;7.276;2023-04-06T12:13:32;10.97;;;6.50;;
19946;SDS011;10135;50.702;7.276;2023-04-06T12:15:33;11.37;;;6.37;;
19946;SDS011;10135;50.702;7.276;2023-04-06T12:17:33;12.20;;;6.80;;
19946;SDS011;10135;50.702;7.276;2023-04-06T12:19:34;11.43;;;6.17;;
19946;SDS011;10135;50.702;7.276;2023-04-06T12:21:35;10.70;;;5.80;;
19946;SDS011;10135;50.702;7.276;2023-04-06T12:23:37;11.20;;;6.57;;
19946;SDS011;10135;50.702;7.276;2023-04-06T12:25:39;11.23;;;6.30;;
19946;SDS011;10135;50.702;7.276;2023-04-06T12:27:41;13.27;;;7.00;;
19946;SDS011;10135;50.702;7.276;2023-04-06T12:29:41;11.33;;;6.53;;
19946;SDS011;10135;50.702;7.276;2023-04-06T12:31:42;9.50;;;6.33;;
19946;SDS011;10135;50.702;7.276;2023-04-06T12:33:48;10.80;;;6.30;;
19946;SDS011;10135;50.702;7.276;2023-04-06T12:35:50;10.50;;;6.60;;
19946;SDS011;10135;50.702;7.276;2023-04-06T12:37:50;11.53;;;6.80;;
19946;SDS011;10135;50.702;7.276;2023-04-06T12:39:52;10.73;;;6.17;;
19946;SDS011;10135;50.702;7.276;2023-04-06T12:41:52;14.17;;;6.37;;
19946;SDS011;10135;50.702;7.276;2023-04-06T12:43:53;10.30;;;6.40;;
19946;SDS011;10135;50.702;7.276;2023-04-06T12:45:54;11.10;;;6.77;;
19946;SDS011;10135;50.702;7.276;2023-04-06T12:47:56;10.23;;;5.70;;
19946;SDS011;10135;50.702;7.276;2023-04-06T12:49:58;8.37;;;5.60;;
19946;SDS011;10135;50.702;7.276;2023-04-06T12:51:58;9.37;;;5.83;;
19946;SDS011;10135;50.702;7.276;2023-04-06T12:53:59;9.93;;;5.90;;
19946;SDS011;10135;50.702;7.276;2023-04-06T12:56:01;10.93;;;5.47;;
19946;SDS011;10135;50.702;7.276;2023-04-06T12:58:02;9.13;;;5.67;;
19946;SDS011;10135;50.702;7.276;2023-04-06T13:00:03;8.90;;;5.57;;
19946;SDS011;10135;50.702;7.276;2023-04-06T13:02:05;7.73;;;5.30;;
19946;SDS011;10135;50.702;7.276;2023-04-06T13:04:06;8.50;;;4.97;;
19946;SDS011;10135;50.702;7.276;2023-04-06T13:06:06;9.90;;;5.30;;
19946;SDS011;10135;50.702;7.276;2023-04-06T13:08:08;7.73;;;5.00;;
19946;SDS011;10135;50.702;7.276;2023-04-06T13:10:09;9.80;;;5.80;;
19946;SDS011;10135;50.702;7.276;2023-04-06T13:12:09;8.37;;;5.00;;
19946;SDS011;10135;50.702;7.276;2023-04-06T13:14:10;7.50;;;5.07;;
19946;SDS011;10135;50.702;7.276;2023-04-06T13:16:10;9.33;;;4.80;;
19946;SDS011;10135;50.702;7.276;2023-04-06T13:18:11;6.73;;;4.67;;
19946;SDS011;10135;50.702;7.276;2023-04-06T13:20:12;7.07;;;4.90;;
19946;SDS011;10135;50.702;7.276;2023-04-06T13:22:12;6.57;;;4.37;;
19946;SDS011;10135;50.702;7.276;2023-04-06T13:24:13;6.83;;;4.33;;
19946;SDS011;10135;50.702;7.276;2023-04-06T13:26:14;6.57;;;4.33;;
19946;SDS011;10135;50.702;7.276;2023-04-06T13:28:16;6.83;;;4.70;;
19946;SDS011;10135;50.702;7.276;2023-04-06T13:30:17;6.00;;;4.43;;
19946;SDS011;10135;50.702;7.276;2023-04-06T13:32:17;5.67;;;4.53;;
19946;SDS011;10135;50.702;7.276;2023-04-06T13:34:18;7.80;;;4.57;;
19946;SDS011;10135;50.702;7.276;2023-04-06T13:36:19;7.93;;;5.00;;
19946;SDS011;10135;50.702;7.276;2023-04-06T13:38:19;5.13;;;4.37;;
19946;SDS011;10135;50.702;7.276;2023-04-06T13:40:20;7.00;;;4.83;;
19946;SDS011;10135;50.702;7.276;2023-04-06T13:42:21;5.90;;;4.33;;
19946;SDS011;10135;50.702;7.276;2023-04-06T13:44:22;5.13;;;4.20;;
19946;SDS011;10135;50.702;7.276;2023-04-06T13:46:22;6.70;;;4.90;;
19946;SDS011;10135;50.702;7.276;2023-04-06T13:48:24;9.00;;;4.67;;
19946;SDS011;10135;50.702;7.276;2023-04-06T13:50:26;6.77;;;4.77;;
19946;SDS011;10135;50.702;7.276;2023-04-06T13:52:27;6.10;;;4.23;;
19946;SDS011;10135;50.702;7.276;2023-04-06T13:54:27;5.73;;;3.73;;
19946;SDS011;10135;50.702;7.276;2023-04-06T13:56:28;5.73;;;3.70;;
19946;SDS011;10135;50.702;7.276;2023-04-06T13:58:29;5.23;;;4.07;;
19946;SDS011;10135;50.702;7.276;2023-04-06T14:00:30;4.40;;;3.70;;
19946;SDS011;10135;50.702;7.276;2023-04-06T14:02:30;3.47;;;3.13;;
19946;SDS011;10135;50.702;7.276;2023-04-06T14:04:31;3.03;;;2.83;;
19946;SDS011;10135;50.702;7.276;2023-04-06T14:06:33;3.20;;;2.80;;
19946;SDS011;10135;50.702;7.276;2023-04-06T14:08:34;3.37;;;3.07;;
19946;SDS011;10135;50.702;7.276;2023-04-06T14:10:38;3.57;;;3.27;;
19946;SDS011;10135;50.702;7.276;2023-04-06T14:12:42;5.57;;;3.30;;
19946;SDS011;10135;50.702;7.276;2023-04-06T14:14:44;3.67;;;3.37;;
19946;SDS011;10135;50.702;7.276;2023-04-06T14:16:45;3.30;;;3.03;;
19946;SDS011;10135;50.702;7.276;2023-04-06T14:18:46;4.10;;;2.80;;
19946;SDS011;10135;50.702;7.276;2023-04-06T14:20:53;5.43;;;3.20;;
19946;SDS011;10135;50.702;7.276;2023-04-06T14:22:59;4.27;;;3.40;;
19946;SDS011;10135;50.702;7.276;2023-04-06T14:25:01;4.87;;;3.50;;
19946;SDS011;10135;50.702;7.276;2023-04-06T14:27:02;6.80;;;3.53;;
19946;SDS011;10135;50.702;7.276;2023-04-06T14:29:03;3.93;;;3.20;;
19946;SDS011;10135;50.702;7.276;2023-04-06T14:31:12;3.00;;;2.70;;
19946;SDS011;10135;50.702;7.276;2023-04-06T14:33:14;4.47;;;3.17;;
19946;SDS011;10135;50.702;7.276;2023-04-06T14:35:15;3.40;;;3.07;;
19946;SDS011;10135;50.702;7.276;2023-04-06T14:37:16;3.70;;;3.03;;
19946;SDS011;10135;50.702;7.276;2023-04-06T14:39:17;5.60;;;3.57;;
19946;SDS011;10135;50.702;7.276;2023-04-06T14:41:18;4.97;;;3.30;;
19946;SDS011;10135;50.702;7.276;2023-04-06T14:43:21;7.93;;;3.47;;
19946;SDS011;10135;50.702;7.276;2023-04-06T14:45:21;7.47;;;3.57;;
19946;SDS011;10135;50.702;7.276;2023-04-06T14:47:22;4.00;;;3.60;;
19946;SDS011;10135;50.702;7.276;2023-04-06T14:49:23;4.97;;;3.50;;
19946;SDS011;10135;50.702;7.276;2023-04-06T14:51:24;5.00;;;3.80;;
19946;SDS011;10135;50.702;7.276;2023-04-06T14:53:27;4.27;;;3.47;;
19946;SDS011;10135;50.702;7.276;2023-04-06T14:55:28;5.53;;;4.10;;
19946;SDS011;10135;50.702;7.276;2023-04-06T14:57:29;6.43;;;4.30;;
19946;SDS011;10135;50.702;7.276;2023-04-06T14:59:31;7.00;;;4.30;;
19946;SDS011;10135;50.702;7.276;2023-04-06T15:01:36;5.10;;;4.07;;
19946;SDS011;10135;50.702;7.276;2023-04-06T15:03:37;5.47;;;4.57;;
19946;SDS011;10135;50.702;7.276;2023-04-06T15:05:37;6.97;;;4.33;;
19946;SDS011;10135;50.702;7.276;2023-04-06T15:07:38;4.53;;;4.10;;
19946;SDS011;10135;50.702;7.276;2023-04-06T15:09:39;6.27;;;4.37;;
19946;SDS011;10135;50.702;7.276;2023-04-06T15:11:39;4.60;;;3.70;;
19946;SDS011;10135;50.702;7.276;2023-04-06T15:13:40;4.93;;;4.07;;
19946;SDS011;10135;50.702;7.276;2023-04-06T15:15:41;6.77;;;4.07;;
19946;SDS011;10135;50.702;7.276;2023-04-06T15:17:42;8.03;;;4.17;;
19946;SDS011;10135;50.702;7.276;2023-04-06T15:19:43;6.60;;;4.23;;
19946;SDS011;10135;50.702;7.276;2023-04-06T15:21:43;4.63;;;3.93;;
19946;SDS011;10135;50.702;7.276;2023-04-06T15:23:44;4.77;;;3.70;;
19946;SDS011;10135;50.702;7.276;2023-04-06T15:25:46;5.83;;;4.20;;
19946;SDS011;10135;50.702;7.276;2023-04-06T15:27:47;4.47;;;4.07;;
19946;SDS011;10135;50.702;7.276;2023-04-06T15:29:47;5.53;;;4.10;;
19946;SDS011;10135;50.702;7.276;2023-04-06T15:31:48;4.87;;;4.03;;
19946;SDS011;10135;50.702;7.276;2023-04-06T15:33:49;6.50;;;3.60;;
19946;SDS011;10135;50.702;7.276;2023-04-06T15:35:49;3.27;;;2.90;;
19946;SDS011;10135;50.702;7.276;2023-04-06T15:37:51;4.10;;;3.43;;
19946;SDS011;10135;50.702;7.276;2023-04-06T15:39:52;4.17;;;3.43;;
19946;SDS011;10135;50.702;7.276;2023-04-06T15:41:52;4.60;;;3.60;;
19946;SDS011;10135;50.702;7.276;2023-04-06T15:43:53;4.33;;;3.60;;
19946;SDS011;10135;50.702;7.276;2023-04-06T15:45:55;3.50;;;3.17;;
19946;SDS011;10135;50.702;7.276;2023-04-06T15:47:56;3.60;;;3.10;;
19946;SDS011;10135;50.702;7.276;2023-04-06T15:49:56;3.80;;;3.37;;
19946;SDS011;10135;50.702;7.276;2023-04-06T15:51:57;3.63;;;3.27;;
19946;SDS011;10135;50.702;7.276;2023-04-06T15:53:58;3.77;;;3.40;;
19946;SDS011;10135;50.702;7.276;2023-04-06T15:55:59;4.23;;;3.40;;
19946;SDS011;10135;50.702;7.276;2023-04-06T15:58:05;5.10;;;3.30;;
19946;SDS011;10135;50.702;7.276;2023-04-06T16:00:06;4.93;;;3.80;;
19946;SDS011;10135;50.702;7.276;2023-04-06T16:02:08;3.80;;;3.40;;
19946;SDS011;10135;50.702;7.276;2023-04-06T16:04:09;5.30;;;3.70;;
19946;SDS011;10135;50.702;7.276;2023-04-06T16:06:10;4.40;;;3.90;;
19946;SDS011;10135;50.702;7.276;2023-04-06T16:08:12;4.30;;;3.90;;
19946;SDS011;10135;50.702;7.276;2023-04-06T16:10:15;5.47;;;4.50;;
19946;SDS011;10135;50.702;7.276;2023-04-06T16:12:16;5.40;;;4.20;;
19946;SDS011;10135;50.702;7.276;2023-04-06T16:14:18;4.83;;;4.30;;
19946;SDS011;10135;50.702;7.276;2023-04-06T16:16:18;6.63;;;4.83;;
19946;SDS011;10135;50.702;7.276;2023-04-06T16:18:20;5.57;;;4.83;;
19946;SDS011;10135;50.702;7.276;2023-04-06T16:20:20;4.97;;;4.23;;
19946;SDS011;10135;50.702;7.276;2023-04-06T16:22:21;7.30;;;5.00;;
19946;SDS011;10135;50.702;7.276;2023-04-06T16:24:22;4.70;;;4.30;;
19946;SDS011;10135;50.702;7.276;2023-04-06T16:26:22;5.80;;;4.63;;
19946;SDS011;10135;50.702;7.276;2023-04-06T16:28:23;6.13;;;4.63;;
19946;SDS011;10135;50.702;7.276;2023-04-06T16:30:24;5.97;;;4.63;;
19946;SDS011;10135;50.702;7.276;2023-04-06T16:32:25;5.73;;;4.60;;
19946;SDS011;10135;50.702;7.276;2023-04-06T16:34:29;6.53;;;5.03;;
19946;SDS011;10135;50.702;7.276;2023-04-06T16:36:31;7.23;;;4.97;;
19946;SDS011;10135;50.702;7.276;2023-04-06T16:38:32;9.77;;;5.90;;
19946;SDS011;10135;50.702;7.276;2023-04-06T16:40:34;6.90;;;5.30;;
19946;SDS011;10135;50.702;7.276;2023-04-06T16:42:35;6.33;;;5.20;;
19946;SDS011;10135;50.702;7.276;2023-04-06T16:44:35;8.63;;;5.63;;
19946;SDS011;10135;50.702;7.276;2023-04-06T16:46:37;6.77;;;5.40;;
19946;SDS011;10135;50.702;7.276;2023-04-06T16:48:38;7.33;;;5.33;;
19946;SDS011;10135;50.702;7.276;2023-04-06T16:50:38;6.77;;;5.00;;
19946;SDS011;10135;50.702;7.276;2023-04-06T16:52:39;5.97;;;4.90;;
19946;SDS011;10135;50.702;7.276;2023-04-06T16:54:40;6.17;;;5.03;;
19946;SDS011;10135;50.702;7.276;2023-04-06T16:56:41;6.37;;;5.17;;
19946;SDS011;10135;50.702;7.276;2023-04-06T16:58:42;6.10;;;5.30;;
19946;SDS011;10135;50.702;7.276;2023-04-06T17:00:43;7.13;;;5.07;;
19946;SDS011;10135;50.702;7.276;2023-04-06T17:02:45;6.97;;;4.97;;
19946;SDS011;10135;50.702;7.276;2023-04-06T17:04:46;6.70;;;5.30;;
19946;SDS011;10135;50.702;7.276;2023-04-06T17:06:47;8.17;;;5.50;;
19946;SDS011;10135;50.702;7.276;2023-04-06T17:08:48;6.67;;;5.20;;
19946;SDS011;10135;50.702;7.276;2023-04-06T17:10:49;7.33;;;5.50;;
19946;SDS011;10135;50.702;7.276;2023-04-06T17:12:51;7.77;;;5.10;;
19946;SDS011;10135;50.702;7.276;2023-04-06T17:14:51;7.77;;;4.97;;
19946;SDS011;10135;50.702;7.276;2023-04-06T17:16:52;5.57;;;4.97;;